createdAt,value
2019-01-20T00:02:51.775Z,17.40
2019-01-20T00:07:54.687Z,16.53
2019-01-20T00:12:57.427Z,17.03
2019-01-20T00:17:59.384Z,16.30
2019-01-20T00:23:01.295Z,15.50
2019-01-20T00:28:03.405Z,14.83
2019-01-20T00:33:05.426Z,16.00
2019-01-20T00:38:07.360Z,15.30
2019-01-20T00:43:09.509Z,15.23
2019-01-20T00:48:11.556Z,15.73
2019-01-20T00:53:13.591Z,17.00
2019-01-20T00:58:15.698Z,15.53
2019-01-20T01:03:17.801Z,14.73
2019-01-20T01:08:19.827Z,15.13
2019-01-20T01:13:22.354Z,14.57
2019-01-20T01:18:24.375Z,15.07
2019-01-20T01:23:26.364Z,15.87
2019-01-20T01:28:28.292Z,15.53
2019-01-20T01:33:31.287Z,14.57
2019-01-20T01:38:33.308Z,15.30
2019-01-20T01:43:35.211Z,14.17
2019-01-20T01:48:37.377Z,14.93
2019-01-20T01:53:39.406Z,16.17
2019-01-20T01:58:41.455Z,15.07
2019-01-20T02:03:43.473Z,15.27
2019-01-20T02:08:45.502Z,15.60
2019-01-20T02:13:47.470Z,16.37
2019-01-20T02:18:49.377Z,15.97
2019-01-20T02:23:51.422Z,14.93
2019-01-20T02:28:53.313Z,15.20
2019-01-20T02:33:55.235Z,15.80
2019-01-20T02:38:57.256Z,14.97
2019-01-20T02:43:59.326Z,15.50
2019-01-20T02:49:02.347Z,17.27
2019-01-20T02:54:04.376Z,17.13
2019-01-20T02:59:06.512Z,16.57
2019-01-20T03:04:08.537Z,16.17
2019-01-20T03:09:10.551Z,17.07
2019-01-20T03:14:12.607Z,16.80
2019-01-20T03:19:14.751Z,17.47
2019-01-20T03:24:16.867Z,16.77
2019-01-20T03:29:18.774Z,17.43
2019-01-20T03:34:20.695Z,17.57
2019-01-20T03:39:22.640Z,16.73
2019-01-20T03:44:24.552Z,16.93
2019-01-20T03:49:26.538Z,16.83
2019-01-20T03:54:29.844Z,17.67
2019-01-20T03:59:31.916Z,18.10
2019-01-20T04:04:33.817Z,18.67
2019-01-20T04:09:35.752Z,18.77
2019-01-20T04:14:37.717Z,18.67
2019-01-20T04:19:39.866Z,17.87
2019-01-20T04:24:43.288Z,17.40
2019-01-20T04:29:45.204Z,17.17
2019-01-20T04:34:47.112Z,18.07
2019-01-20T04:39:49.302Z,18.50
2019-01-20T04:44:51.427Z,18.80
2019-01-20T04:49:53.372Z,19.73
2019-01-20T04:54:55.387Z,19.67
2019-01-20T04:59:57.524Z,19.67
2019-01-20T05:04:59.429Z,20.00
2019-01-20T05:10:04.487Z,19.93
2019-01-20T05:15:10.190Z,20.87
2019-01-20T05:20:12.533Z,20.00
2019-01-20T05:25:14.945Z,20.03
2019-01-20T05:30:19.369Z,19.80
2019-01-20T05:35:21.384Z,19.40
2019-01-20T05:40:24.726Z,19.47
2019-01-20T05:45:26.742Z,20.30
2019-01-20T05:50:28.789Z,22.10
2019-01-20T05:55:30.704Z,19.80
2019-01-20T06:00:33.287Z,20.57
2019-01-20T06:05:36.085Z,19.87
2019-01-20T06:10:38.028Z,22.70
2019-01-20T06:15:40.013Z,20.27
2019-01-20T06:20:42.014Z,22.10
2019-01-20T06:25:43.943Z,21.20
2019-01-20T06:30:45.871Z,19.70
2019-01-20T06:35:47.919Z,20.07
2019-01-20T06:40:49.846Z,20.63
2019-01-20T06:45:51.821Z,19.73
2019-01-20T06:50:53.877Z,19.97
2019-01-20T06:55:55.779Z,19.10
2019-01-20T07:00:57.762Z,19.73
2019-01-20T07:05:59.896Z,20.33
2019-01-20T07:11:01.852Z,21.07
2019-01-20T07:16:04.955Z,20.53
2019-01-20T07:21:06.857Z,21.47
2019-01-20T07:26:08.766Z,21.63
2019-01-20T07:31:10.714Z,23.60
2019-01-20T07:36:12.639Z,22.47
2019-01-20T07:41:14.579Z,25.63
2019-01-20T07:46:16.638Z,23.30
2019-01-20T07:51:18.704Z,23.53
2019-01-20T07:56:20.721Z,23.43
2019-01-20T08:01:22.786Z,24.10
2019-01-20T08:06:24.715Z,23.93
2019-01-20T08:11:26.619Z,23.93
2019-01-20T08:16:28.763Z,23.83
2019-01-20T08:21:31.139Z,23.70
2019-01-20T08:26:33.037Z,22.90
2019-01-20T08:31:34.950Z,24.03
2019-01-20T08:36:36.878Z,24.67
2019-01-20T08:41:38.861Z,26.73
2019-01-20T08:46:55.164Z,25.80
2019-01-20T08:51:57.133Z,27.00
2019-01-20T08:56:59.037Z,25.83
2019-01-20T09:02:00.979Z,24.17
2019-01-20T09:07:03.091Z,25.63
2019-01-20T09:12:05.089Z,24.30
2019-01-20T09:17:07.170Z,24.57
2019-01-20T09:22:09.175Z,23.00
2019-01-20T09:27:11.285Z,23.27
2019-01-20T09:32:13.491Z,23.60
2019-01-20T09:37:15.417Z,22.83
2019-01-20T09:42:17.353Z,24.10
2019-01-20T09:47:19.315Z,23.97
2019-01-20T09:52:21.261Z,25.40
2019-01-20T09:57:23.579Z,23.60
2019-01-20T10:02:25.496Z,24.00
2019-01-20T10:07:27.432Z,24.07
2019-01-20T10:12:29.348Z,23.47
2019-01-20T10:17:31.382Z,23.00
2019-01-20T10:22:33.396Z,24.33
2019-01-20T10:27:35.640Z,22.40
2019-01-20T10:32:37.947Z,22.03
2019-01-20T10:37:40.254Z,22.33
2019-01-20T10:42:42.259Z,21.27
2019-01-20T10:47:44.241Z,22.10
2019-01-20T10:52:46.380Z,21.80
2019-01-20T10:57:48.542Z,22.17
2019-01-20T11:02:50.558Z,21.87
2019-01-20T11:07:52.697Z,22.37
2019-01-20T11:12:54.999Z,22.37
2019-01-20T11:17:56.964Z,21.60
2019-01-20T11:22:58.974Z,41.20
2019-01-20T11:28:01.161Z,22.17
2019-01-20T11:33:03.746Z,21.43
2019-01-20T11:38:05.823Z,21.30
2019-01-20T11:43:08.613Z,20.70
2019-01-20T11:48:10.817Z,19.40
2019-01-20T11:53:12.926Z,20.03
2019-01-20T11:58:14.908Z,18.37
2019-01-20T12:03:16.905Z,19.80
2019-01-20T12:08:18.930Z,19.20
2019-01-20T12:13:26.462Z,18.07
2019-01-20T12:18:28.670Z,18.23
2019-01-20T12:23:30.563Z,18.23
2019-01-20T12:28:32.502Z,18.30
2019-01-20T12:33:34.510Z,17.67
2019-01-20T12:38:36.443Z,17.97
2019-01-20T12:43:38.453Z,18.07
2019-01-20T12:48:40.375Z,17.27
2019-01-20T12:53:42.419Z,18.23
2019-01-20T12:58:44.423Z,16.73
2019-01-20T13:03:47.455Z,17.27
2019-01-20T13:08:49.386Z,17.43
2019-01-20T13:13:51.397Z,18.20
2019-01-20T13:18:53.294Z,19.43
2019-01-20T13:23:55.276Z,17.53
2019-01-20T13:38:12.079Z,37.10
2019-01-20T13:48:14.210Z,17.07
2019-01-20T13:58:16.764Z,20.10
2019-01-20T14:08:19.116Z,23.00
2019-01-20T14:18:21.889Z,18.17
2019-01-20T14:28:24.215Z,19.20
2019-01-20T14:38:26.520Z,19.20
2019-01-20T14:48:28.773Z,17.77
2019-01-20T14:58:31.109Z,18.27
2019-01-20T15:08:33.088Z,17.93
2019-01-20T15:18:35.513Z,19.80
2019-01-20T15:28:37.804Z,17.97
2019-01-20T15:38:40.046Z,18.20
2019-01-20T15:48:42.547Z,40.83
2019-01-20T15:58:44.713Z,24.63
2019-01-20T16:08:46.984Z,18.90
2019-01-20T16:18:49.220Z,19.73
2019-01-20T16:28:51.612Z,21.70
2019-01-20T16:38:53.746Z,25.23
2019-01-20T16:48:55.847Z,37.93
2019-01-20T16:58:58.199Z,22.00
2019-01-20T17:09:00.436Z,26.23
2019-01-20T17:19:02.672Z,34.37
2019-01-20T17:29:05.100Z,25.03
2019-01-20T17:39:11.996Z,24.17
2019-01-20T17:49:13.949Z,25.07
2019-01-20T17:59:16.456Z,23.43
2019-01-20T18:09:18.522Z,24.57
2019-01-20T18:19:20.562Z,23.83
2019-01-20T18:29:22.927Z,26.13
2019-01-20T18:39:24.946Z,25.73
2019-01-20T18:49:26.983Z,24.77
2019-01-20T18:59:41.695Z,25.87
2019-01-20T19:09:43.742Z,27.77
2019-01-20T19:19:45.678Z,28.80
2019-01-20T19:29:48.897Z,30.50
2019-01-20T19:39:50.945Z,34.70
2019-01-20T19:49:52.947Z,32.60
2019-01-20T19:59:55.065Z,31.53
2019-01-20T20:09:57.035Z,41.27
2019-01-20T20:19:58.985Z,38.33
2019-01-20T20:30:01.114Z,36.20
2019-01-20T20:40:04.471Z,34.77
2019-01-20T20:50:08.552Z,33.60
2019-01-20T21:00:19.743Z,32.27
2019-01-20T21:10:22.202Z,33.67
2019-01-20T21:20:24.135Z,34.10
2019-01-20T21:30:26.388Z,33.73
2019-01-20T21:40:28.321Z,33.60
2019-01-20T21:50:30.491Z,30.23
2019-01-20T22:00:32.712Z,31.87
2019-01-20T22:10:34.724Z,32.70
2019-01-20T22:20:36.665Z,34.13
2019-01-20T22:30:39.776Z,35.23
2019-01-20T22:40:42.728Z,32.67
2019-01-20T22:50:44.916Z,34.33
2019-01-20T23:00:57.263Z,35.33
2019-01-20T23:11:00.626Z,35.17
2019-01-20T23:21:02.862Z,35.57
2019-01-20T23:31:04.859Z,34.40
2019-01-20T23:41:07.360Z,34.50
2019-01-20T23:51:09.408Z,37.23
